VKG4194 ESMS-EKRN
Flight info
| Callsign | VKG4194 |
|---|---|
| Flight time | 0h 14m |
| Altitude | 13000 |
| Route | TELMO |
| Aircraft | A321/M-SDE2E3FGHIJ1RWXYZ/LB2 |
Departure
| Time | 2026-05-05 07:04 |
|---|---|
| Airport | Malmö Sturup Airport (ESMS) |
Arrival
| Time | 2026-05-05 07:18 |
|---|---|
| Airport | Bornholm Airport (EKRN) |
| Time | Latitude | Longitude | Altitude | Speed | Heading |
|---|---|---|---|---|---|
| 2026-05-05 06:46 | 55.54005 | 13.36695 | 235 ft | 0 kts | 353° |
| 2026-05-05 06:57 | 55.53989 | 13.36698 | 231 ft | 4 kts | 353° |
| 2026-05-05 06:57 | 55.53967 | 13.36703 | 231 ft | 3 kts | 354° |
| 2026-05-05 06:57 | 55.53942 | 13.36703 | 231 ft | 4 kts | 25° |
| 2026-05-05 06:58 | 55.53931 | 13.36678 | 234 ft | 4 kts | 83° |
| 2026-05-05 06:58 | 55.53930 | 13.36653 | 234 ft | 0 kts | 83° |
| 2026-05-05 07:00 | 55.53933 | 13.36698 | 231 ft | 9 kts | 83° |
| 2026-05-05 07:00 | 55.53943 | 13.36860 | 231 ft | 16 kts | 83° |
| 2026-05-05 07:01 | 55.53956 | 13.37053 | 231 ft | 16 kts | 83° |
| 2026-05-05 07:01 | 55.53970 | 13.37228 | 232 ft | 10 kts | 64° |
| 2026-05-05 07:01 | 55.54049 | 13.37243 | 233 ft | 20 kts | 352° |
| 2026-05-05 07:01 | 55.54214 | 13.37206 | 232 ft | 25 kts | 353° |
| 2026-05-05 07:02 | 55.54391 | 13.37169 | 231 ft | 26 kts | 353° |
| 2026-05-05 07:02 | 55.54570 | 13.37132 | 231 ft | 20 kts | 353° |
| 2026-05-05 07:02 | 55.54695 | 13.37192 | 233 ft | 19 kts | 23° |
| 2026-05-05 07:02 | 55.54782 | 13.37270 | 235 ft | 9 kts | 51° |
| 2026-05-05 07:03 | 55.54778 | 13.37375 | 236 ft | 9 kts | 137° |
| 2026-05-05 07:03 | 55.54618 | 13.37417 | 231 ft | 56 kts | 173° |
| 2026-05-05 07:03 | 55.53944 | 13.37552 | 241 ft | 135 kts | 173° |
| 2026-05-05 07:03 | 55.52833 | 13.37774 | 461 ft | 171 kts | 175° |
| 2026-05-05 07:04 | 55.51672 | 13.38014 | 1382 ft | 167 kts | 174° |
| 2026-05-05 07:04 | 55.50514 | 13.38256 | 2176 ft | 171 kts | 174° |
| 2026-05-05 07:04 | 55.49264 | 13.38511 | 2686 ft | 192 kts | 175° |
| 2026-05-05 07:04 | 55.47855 | 13.38768 | 3138 ft | 217 kts | 175° |
| 2026-05-05 07:05 | 55.46373 | 13.39786 | 3688 ft | 247 kts | 142° |
| 2026-05-05 07:05 | 55.45287 | 13.42310 | 4441 ft | 269 kts | 121° |
| 2026-05-05 07:05 | 55.44389 | 13.45203 | 5475 ft | 277 kts | 120° |
| 2026-05-05 07:05 | 55.43485 | 13.48263 | 6523 ft | 286 kts | 120° |
| 2026-05-05 07:06 | 55.42563 | 13.51411 | 7535 ft | 293 kts | 121° |
| 2026-05-05 07:06 | 55.41604 | 13.54644 | 8299 ft | 301 kts | 121° |
| 2026-05-05 07:06 | 55.40625 | 13.57914 | 8717 ft | 304 kts | 122° |
| 2026-05-05 07:06 | 55.39631 | 13.61198 | 8987 ft | 305 kts | 122° |
| 2026-05-05 07:07 | 55.38628 | 13.64489 | 9257 ft | 306 kts | 122° |
| 2026-05-05 07:07 | 55.37615 | 13.67794 | 9500 ft | 308 kts | 123° |
| 2026-05-05 07:07 | 55.36595 | 13.71108 | 9776 ft | 309 kts | 123° |
| 2026-05-05 07:07 | 55.35567 | 13.74441 | 9925 ft | 311 kts | 123° |
| 2026-05-05 07:08 | 55.34532 | 13.77787 | 9953 ft | 311 kts | 123° |
| 2026-05-05 07:08 | 55.33499 | 13.81126 | 9918 ft | 312 kts | 123° |
| 2026-05-05 07:08 | 55.32463 | 13.84469 | 9784 ft | 311 kts | 123° |
| 2026-05-05 07:08 | 55.31431 | 13.87796 | 9657 ft | 310 kts | 123° |
| 2026-05-05 07:09 | 55.30402 | 13.91116 | 9526 ft | 309 kts | 123° |
| 2026-05-05 07:09 | 55.29377 | 13.94423 | 9383 ft | 308 kts | 123° |
| 2026-05-05 07:09 | 55.28350 | 13.97724 | 9158 ft | 309 kts | 123° |
| 2026-05-05 07:09 | 55.27311 | 14.01045 | 8662 ft | 309 kts | 122° |
| 2026-05-05 07:10 | 55.26280 | 14.04342 | 8127 ft | 311 kts | 122° |
| 2026-05-05 07:10 | 55.25252 | 14.07634 | 7783 ft | 305 kts | 122° |
| 2026-05-05 07:10 | 55.24240 | 14.10876 | 7337 ft | 302 kts | 122° |
| 2026-05-05 07:10 | 55.23235 | 14.14098 | 6909 ft | 300 kts | 122° |
| 2026-05-05 07:11 | 55.22236 | 14.17292 | 6500 ft | 298 kts | 122° |
| 2026-05-05 07:11 | 55.21240 | 14.20462 | 6072 ft | 296 kts | 122° |
| 2026-05-05 07:11 | 55.20249 | 14.23601 | 5663 ft | 293 kts | 122° |
| 2026-05-05 07:11 | 55.19269 | 14.26699 | 5237 ft | 290 kts | 121° |
| 2026-05-05 07:12 | 55.18275 | 14.29831 | 4460 ft | 299 kts | 120° |
| 2026-05-05 07:12 | 55.17288 | 14.32948 | 4253 ft | 282 kts | 120° |
| 2026-05-05 07:12 | 55.16383 | 14.35825 | 4114 ft | 260 kts | 118° |
| 2026-05-05 07:12 | 55.15650 | 14.38589 | 3990 ft | 242 kts | 114° |
| 2026-05-05 07:13 | 55.15006 | 14.41214 | 3896 ft | 227 kts | 114° |
| 2026-05-05 07:13 | 55.14400 | 14.43674 | 3767 ft | 213 kts | 115° |
| 2026-05-05 07:13 | 55.13826 | 14.45990 | 3603 ft | 202 kts | 115° |
| 2026-05-05 07:13 | 55.13281 | 14.48181 | 3351 ft | 191 kts | 115° |
| 2026-05-05 07:14 | 55.12761 | 14.50268 | 3102 ft | 183 kts | 115° |
| 2026-05-05 07:14 | 55.12261 | 14.52273 | 2853 ft | 177 kts | 115° |
| 2026-05-05 07:14 | 55.11777 | 14.54215 | 2608 ft | 173 kts | 114° |
| 2026-05-05 07:14 | 55.11301 | 14.56120 | 2388 ft | 170 kts | 114° |
| 2026-05-05 07:15 | 55.10837 | 14.57977 | 2152 ft | 168 kts | 114° |
| 2026-05-05 07:15 | 55.10371 | 14.59841 | 1919 ft | 167 kts | 114° |
| 2026-05-05 07:15 | 55.09910 | 14.61681 | 1694 ft | 163 kts | 114° |
| 2026-05-05 07:15 | 55.09479 | 14.63403 | 1490 ft | 146 kts | 114° |
| 2026-05-05 07:16 | 55.09085 | 14.64976 | 1293 ft | 138 kts | 113° |
| 2026-05-05 07:16 | 55.08704 | 14.66496 | 1091 ft | 135 kts | 113° |
| 2026-05-05 07:16 | 55.08328 | 14.67993 | 902 ft | 134 kts | 112° |
| 2026-05-05 07:16 | 55.07954 | 14.69481 | 719 ft | 134 kts | 112° |
| 2026-05-05 07:17 | 55.07585 | 14.70968 | 535 ft | 133 kts | 112° |
| 2026-05-05 07:17 | 55.07212 | 14.72446 | 352 ft | 133 kts | 112° |
| 2026-05-05 07:17 | 55.06840 | 14.73920 | 157 ft | 132 kts | 111° |
| 2026-05-05 07:17 | 55.06478 | 14.75364 | 51 ft | 123 kts | 112° |
| 2026-05-05 07:18 | 55.06235 | 14.76345 | 51 ft | 40 kts | 113° |
| 2026-05-05 07:18 | 55.06198 | 14.76545 | 54 ft | 5 kts | 109° |
| 2026-05-05 07:18 | 55.06173 | 14.76548 | 54 ft | 3 kts | 229° |
| 2026-05-05 07:18 | 55.06197 | 14.76458 | 51 ft | 17 kts | 300° |
| 2026-05-05 07:19 | 55.06266 | 14.76206 | 54 ft | 25 kts | 295° |
| 2026-05-05 07:19 | 55.06337 | 14.75927 | 50 ft | 26 kts | 294° |
| 2026-05-05 07:19 | 55.06409 | 14.75637 | 48 ft | 27 kts | 294° |
| 2026-05-05 07:19 | 55.06485 | 14.75335 | 52 ft | 28 kts | 294° |
| 2026-05-05 07:20 | 55.06560 | 14.75036 | 50 ft | 21 kts | 293° |
| 2026-05-05 07:20 | 55.06615 | 14.74873 | 49 ft | 12 kts | 316° |
| 2026-05-05 07:20 | 55.06696 | 14.74847 | 54 ft | 13 kts | 2° |
| 2026-05-05 07:20 | 55.06780 | 14.74834 | 52 ft | 12 kts | 333° |
| 2026-05-05 07:21 | 55.06835 | 14.74735 | 54 ft | 10 kts | 317° |
| 2026-05-05 07:21 | 55.06892 | 14.74732 | 54 ft | 7 kts | 28° |
| 2026-05-05 07:21 | 55.06907 | 14.74763 | 52 ft | 0 kts | 61° |
| 2026-05-05 07:21 | 55.06911 | 14.74775 | 54 ft | 2 kts | 64° |
| 2026-05-05 07:22 | 55.06911 | 14.74792 | 54 ft | 2 kts | 92° |
| 2026-05-05 07:22 | 55.06899 | 14.74808 | 51 ft | 4 kts | 149° |
| 2026-05-05 07:22 | 55.06888 | 14.74814 | 53 ft | 0 kts | 163° |